sensor_id;sensor_type;location;lat;lon;timestamp;P1;durP1;ratioP1;P2;durP2;ratioP2
37647;SDS011;23490;53.656;10.076;2023-11-21T00:01:51;13.52;;;6.05;;
37647;SDS011;23490;53.656;10.076;2023-11-21T00:04:17;16.05;;;6.35;;
37647;SDS011;23490;53.656;10.076;2023-11-21T00:06:42;15.85;;;6.15;;
37647;SDS011;23490;53.656;10.076;2023-11-21T00:09:08;17.95;;;7.65;;
37647;SDS011;23490;53.656;10.076;2023-11-21T00:11:33;20.63;;;8.00;;
37647;SDS011;23490;53.656;10.076;2023-11-21T00:13:59;20.10;;;7.72;;
37647;SDS011;23490;53.656;10.076;2023-11-21T00:16:24;19.40;;;8.57;;
37647;SDS011;23490;53.656;10.076;2023-11-21T00:18:50;17.42;;;7.70;;
37647;SDS011;23490;53.656;10.076;2023-11-21T00:21:16;17.38;;;6.93;;
37647;SDS011;23490;53.656;10.076;2023-11-21T00:23:42;18.27;;;7.70;;
37647;SDS011;23490;53.656;10.076;2023-11-21T00:26:07;16.15;;;7.95;;
37647;SDS011;23490;53.656;10.076;2023-11-21T00:28:33;17.98;;;7.72;;
37647;SDS011;23490;53.656;10.076;2023-11-21T00:30:58;17.20;;;7.07;;
37647;SDS011;23490;53.656;10.076;2023-11-21T00:33:23;18.40;;;7.70;;
37647;SDS011;23490;53.656;10.076;2023-11-21T00:35:50;17.38;;;7.65;;
37647;SDS011;23490;53.656;10.076;2023-11-21T00:38:15;17.63;;;7.32;;
37647;SDS011;23490;53.656;10.076;2023-11-21T00:40:43;18.38;;;7.65;;
37647;SDS011;23490;53.656;10.076;2023-11-21T00:43:09;20.20;;;7.13;;
37647;SDS011;23490;53.656;10.076;2023-11-21T00:45:34;24.15;;;10.13;;
37647;SDS011;23490;53.656;10.076;2023-11-21T00:48:01;19.88;;;9.15;;
37647;SDS011;23490;53.656;10.076;2023-11-21T00:50:29;21.10;;;9.07;;
37647;SDS011;23490;53.656;10.076;2023-11-21T00:52:55;20.92;;;8.50;;
37647;SDS011;23490;53.656;10.076;2023-11-21T00:55:21;23.52;;;8.80;;
37647;SDS011;23490;53.656;10.076;2023-11-21T00:57:46;21.27;;;9.15;;
37647;SDS011;23490;53.656;10.076;2023-11-21T01:00:12;21.10;;;8.77;;
37647;SDS011;23490;53.656;10.076;2023-11-21T01:02:45;18.20;;;7.75;;
37647;SDS011;23490;53.656;10.076;2023-11-21T01:05:11;18.70;;;7.68;;
37647;SDS011;23490;53.656;10.076;2023-11-21T01:07:37;15.05;;;6.60;;
37647;SDS011;23490;53.656;10.076;2023-11-21T01:10:03;16.08;;;7.07;;
37647;SDS011;23490;53.656;10.076;2023-11-21T01:12:33;15.30;;;6.72;;
37647;SDS011;23490;53.656;10.076;2023-11-21T01:15:01;16.73;;;7.30;;
37647;SDS011;23490;53.656;10.076;2023-11-21T01:17:27;15.95;;;7.47;;
37647;SDS011;23490;53.656;10.076;2023-11-21T01:19:52;14.48;;;7.07;;
37647;SDS011;23490;53.656;10.076;2023-11-21T01:22:18;17.48;;;6.13;;
37647;SDS011;23490;53.656;10.076;2023-11-21T01:24:47;14.88;;;6.13;;
37647;SDS011;23490;53.656;10.076;2023-11-21T01:27:12;16.63;;;6.60;;
37647;SDS011;23490;53.656;10.076;2023-11-21T01:29:38;15.05;;;7.30;;
37647;SDS011;23490;53.656;10.076;2023-11-21T01:32:03;17.00;;;6.80;;
37647;SDS011;23490;53.656;10.076;2023-11-21T01:34:29;15.73;;;7.13;;
37647;SDS011;23490;53.656;10.076;2023-11-21T01:36:54;13.85;;;6.63;;
37647;SDS011;23490;53.656;10.076;2023-11-21T01:39:19;11.27;;;6.03;;
37647;SDS011;23490;53.656;10.076;2023-11-21T01:41:49;12.25;;;5.80;;
37647;SDS011;23490;53.656;10.076;2023-11-21T01:44:15;10.52;;;4.88;;
37647;SDS011;23490;53.656;10.076;2023-11-21T01:46:42;12.45;;;5.80;;
37647;SDS011;23490;53.656;10.076;2023-11-21T01:49:07;11.45;;;4.78;;
37647;SDS011;23490;53.656;10.076;2023-11-21T01:51:38;12.35;;;4.88;;
37647;SDS011;23490;53.656;10.076;2023-11-21T01:54:04;11.52;;;4.88;;
37647;SDS011;23490;53.656;10.076;2023-11-21T01:56:30;10.60;;;4.88;;
37647;SDS011;23490;53.656;10.076;2023-11-21T01:58:57;9.32;;;4.05;;
37647;SDS011;23490;53.656;10.076;2023-11-21T02:01:22;10.32;;;4.20;;
37647;SDS011;23490;53.656;10.076;2023-11-21T02:03:48;10.30;;;6.03;;
37647;SDS011;23490;53.656;10.076;2023-11-21T02:06:14;7.35;;;3.65;;
37647;SDS011;23490;53.656;10.076;2023-11-21T02:08:40;8.27;;;4.10;;
37647;SDS011;23490;53.656;10.076;2023-11-21T02:11:08;9.75;;;3.90;;
37647;SDS011;23490;53.656;10.076;2023-11-21T02:13:34;8.88;;;4.35;;
37647;SDS011;23490;53.656;10.076;2023-11-21T02:15:59;10.45;;;4.50;;
37647;SDS011;23490;53.656;10.076;2023-11-21T02:18:25;8.52;;;3.65;;
37647;SDS011;23490;53.656;10.076;2023-11-21T02:20:50;7.40;;;3.63;;
37647;SDS011;23490;53.656;10.076;2023-11-21T02:23:16;7.60;;;3.80;;
37647;SDS011;23490;53.656;10.076;2023-11-21T02:25:43;7.75;;;3.40;;
37647;SDS011;23490;53.656;10.076;2023-11-21T02:28:08;8.60;;;3.30;;
37647;SDS011;23490;53.656;10.076;2023-11-21T02:30:34;9.05;;;3.28;;
37647;SDS011;23490;53.656;10.076;2023-11-21T02:33:00;8.10;;;4.13;;
37647;SDS011;23490;53.656;10.076;2023-11-21T02:35:26;8.98;;;3.83;;
37647;SDS011;23490;53.656;10.076;2023-11-21T02:37:52;8.98;;;4.13;;
37647;SDS011;23490;53.656;10.076;2023-11-21T02:40:18;8.60;;;3.92;;
37647;SDS011;23490;53.656;10.076;2023-11-21T02:42:46;9.80;;;4.70;;
37647;SDS011;23490;53.656;10.076;2023-11-21T02:45:12;10.13;;;4.30;;
37647;SDS011;23490;53.656;10.076;2023-11-21T02:47:39;9.63;;;4.03;;
37647;SDS011;23490;53.656;10.076;2023-11-21T02:50:05;9.05;;;4.18;;
37647;SDS011;23490;53.656;10.076;2023-11-21T02:52:33;10.48;;;3.70;;
37647;SDS011;23490;53.656;10.076;2023-11-21T02:54:59;8.30;;;3.70;;
37647;SDS011;23490;53.656;10.076;2023-11-21T02:57:24;9.45;;;4.70;;
37647;SDS011;23490;53.656;10.076;2023-11-21T02:59:49;8.88;;;4.28;;
37647;SDS011;23490;53.656;10.076;2023-11-21T03:02:15;9.43;;;3.67;;
37647;SDS011;23490;53.656;10.076;2023-11-21T03:04:40;10.15;;;4.55;;
37647;SDS011;23490;53.656;10.076;2023-11-21T03:07:07;8.90;;;3.95;;
37647;SDS011;23490;53.656;10.076;2023-11-21T03:09:33;9.07;;;3.90;;
37647;SDS011;23490;53.656;10.076;2023-11-21T03:11:59;7.90;;;3.58;;
37647;SDS011;23490;53.656;10.076;2023-11-21T03:14:24;11.80;;;5.13;;
37647;SDS011;23490;53.656;10.076;2023-11-21T03:16:49;8.95;;;4.28;;
37647;SDS011;23490;53.656;10.076;2023-11-21T03:19:15;9.57;;;3.97;;
37647;SDS011;23490;53.656;10.076;2023-11-21T03:21:40;11.40;;;4.03;;
37647;SDS011;23490;53.656;10.076;2023-11-21T03:24:05;9.98;;;4.75;;
37647;SDS011;23490;53.656;10.076;2023-11-21T03:26:32;10.73;;;4.13;;
37647;SDS011;23490;53.656;10.076;2023-11-21T03:28:57;12.93;;;4.20;;
37647;SDS011;23490;53.656;10.076;2023-11-21T03:31:23;10.32;;;4.22;;
37647;SDS011;23490;53.656;10.076;2023-11-21T03:33:48;8.68;;;4.07;;
37647;SDS011;23490;53.656;10.076;2023-11-21T03:36:13;9.88;;;4.50;;
37647;SDS011;23490;53.656;10.076;2023-11-21T03:38:40;9.05;;;4.25;;
37647;SDS011;23490;53.656;10.076;2023-11-21T03:41:06;10.45;;;4.65;;
37647;SDS011;23490;53.656;10.076;2023-11-21T03:43:32;9.20;;;4.38;;
37647;SDS011;23490;53.656;10.076;2023-11-21T03:45:57;8.55;;;4.68;;
37647;SDS011;23490;53.656;10.076;2023-11-21T03:48:22;8.18;;;4.25;;
37647;SDS011;23490;53.656;10.076;2023-11-21T03:50:48;8.40;;;4.43;;
37647;SDS011;23490;53.656;10.076;2023-11-21T03:53:13;10.43;;;4.63;;
37647;SDS011;23490;53.656;10.076;2023-11-21T03:55:39;10.20;;;3.95;;
37647;SDS011;23490;53.656;10.076;2023-11-21T03:58:04;8.40;;;3.70;;
37647;SDS011;23490;53.656;10.076;2023-11-21T04:00:30;8.52;;;4.13;;
37647;SDS011;23490;53.656;10.076;2023-11-21T04:02:55;9.60;;;4.00;;
37647;SDS011;23490;53.656;10.076;2023-11-21T04:05:20;9.43;;;4.55;;
37647;SDS011;23490;53.656;10.076;2023-11-21T04:07:49;9.15;;;4.38;;
37647;SDS011;23490;53.656;10.076;2023-11-21T04:10:16;13.05;;;4.15;;
37647;SDS011;23490;53.656;10.076;2023-11-21T04:12:41;9.20;;;3.90;;
37647;SDS011;23490;53.656;10.076;2023-11-21T04:15:07;9.35;;;3.22;;
37647;SDS011;23490;53.656;10.076;2023-11-21T04:17:33;8.45;;;4.38;;
37647;SDS011;23490;53.656;10.076;2023-11-21T04:19:59;7.22;;;4.35;;
37647;SDS011;23490;53.656;10.076;2023-11-21T04:22:24;9.45;;;4.65;;
37647;SDS011;23490;53.656;10.076;2023-11-21T04:24:50;6.70;;;3.30;;
37647;SDS011;23490;53.656;10.076;2023-11-21T04:27:15;11.70;;;4.13;;
37647;SDS011;23490;53.656;10.076;2023-11-21T04:29:43;8.27;;;3.67;;
37647;SDS011;23490;53.656;10.076;2023-11-21T04:32:09;7.70;;;3.80;;
37647;SDS011;23490;53.656;10.076;2023-11-21T04:34:34;7.50;;;4.35;;
37647;SDS011;23490;53.656;10.076;2023-11-21T04:37:00;8.75;;;3.97;;
37647;SDS011;23490;53.656;10.076;2023-11-21T04:39:25;8.63;;;4.85;;
37647;SDS011;23490;53.656;10.076;2023-11-21T04:41:51;9.23;;;4.00;;
37647;SDS011;23490;53.656;10.076;2023-11-21T04:44:16;7.10;;;3.95;;
37647;SDS011;23490;53.656;10.076;2023-11-21T04:46:42;11.40;;;4.82;;
37647;SDS011;23490;53.656;10.076;2023-11-21T04:49:07;9.68;;;4.25;;
37647;SDS011;23490;53.656;10.076;2023-11-21T04:51:32;9.13;;;4.00;;
37647;SDS011;23490;53.656;10.076;2023-11-21T04:53:58;8.90;;;3.85;;
37647;SDS011;23490;53.656;10.076;2023-11-21T04:56:23;9.57;;;4.40;;
37647;SDS011;23490;53.656;10.076;2023-11-21T04:58:48;8.43;;;3.92;;
37647;SDS011;23490;53.656;10.076;2023-11-21T05:01:14;9.52;;;4.03;;
37647;SDS011;23490;53.656;10.076;2023-11-21T05:03:39;9.02;;;4.55;;
37647;SDS011;23490;53.656;10.076;2023-11-21T05:06:05;7.18;;;3.80;;
37647;SDS011;23490;53.656;10.076;2023-11-21T05:08:31;9.10;;;4.60;;
37647;SDS011;23490;53.656;10.076;2023-11-21T05:10:56;8.30;;;3.63;;
37647;SDS011;23490;53.656;10.076;2023-11-21T05:13:21;8.18;;;4.25;;
37647;SDS011;23490;53.656;10.076;2023-11-21T05:18:17;7.47;;;4.38;;
37647;SDS011;23490;53.656;10.076;2023-11-21T05:20:42;8.45;;;4.22;;
37647;SDS011;23490;53.656;10.076;2023-11-21T05:23:08;8.18;;;3.92;;
37647;SDS011;23490;53.656;10.076;2023-11-21T05:25:33;9.35;;;4.05;;
37647;SDS011;23490;53.656;10.076;2023-11-21T05:27:59;9.00;;;4.05;;
37647;SDS011;23490;53.656;10.076;2023-11-21T05:30:26;9.30;;;4.25;;
37647;SDS011;23490;53.656;10.076;2023-11-21T05:32:52;8.50;;;4.15;;
37647;SDS011;23490;53.656;10.076;2023-11-21T05:35:17;9.30;;;3.97;;
37647;SDS011;23490;53.656;10.076;2023-11-21T05:37:43;8.70;;;4.15;;
37647;SDS011;23490;53.656;10.076;2023-11-21T05:40:09;7.90;;;3.75;;
37647;SDS011;23490;53.656;10.076;2023-11-21T05:42:35;8.82;;;4.15;;
37647;SDS011;23490;53.656;10.076;2023-11-21T05:45:00;8.02;;;4.20;;
37647;SDS011;23490;53.656;10.076;2023-11-21T05:47:41;9.13;;;4.70;;
37647;SDS011;23490;53.656;10.076;2023-11-21T05:50:11;8.57;;;4.18;;
37647;SDS011;23490;53.656;10.076;2023-11-21T05:52:39;10.20;;;4.38;;
37647;SDS011;23490;53.656;10.076;2023-11-21T05:55:06;9.82;;;4.72;;
37647;SDS011;23490;53.656;10.076;2023-11-21T05:57:32;9.50;;;4.47;;
37647;SDS011;23490;53.656;10.076;2023-11-21T06:00:02;8.95;;;4.57;;
37647;SDS011;23490;53.656;10.076;2023-11-21T06:02:36;8.60;;;3.80;;
37647;SDS011;23490;53.656;10.076;2023-11-21T06:05:05;8.80;;;4.22;;
37647;SDS011;23490;53.656;10.076;2023-11-21T06:07:31;10.82;;;4.47;;
37647;SDS011;23490;53.656;10.076;2023-11-21T06:09:57;10.23;;;4.00;;
37647;SDS011;23490;53.656;10.076;2023-11-21T06:12:22;10.30;;;4.85;;
37647;SDS011;23490;53.656;10.076;2023-11-21T06:14:47;7.25;;;3.75;;
37647;SDS011;23490;53.656;10.076;2023-11-21T06:17:13;9.02;;;3.80;;
37647;SDS011;23490;53.656;10.076;2023-11-21T06:19:38;8.38;;;3.83;;
37647;SDS011;23490;53.656;10.076;2023-11-21T06:22:05;9.35;;;4.55;;
37647;SDS011;23490;53.656;10.076;2023-11-21T06:24:31;7.82;;;4.05;;
37647;SDS011;23490;53.656;10.076;2023-11-21T06:26:57;10.85;;;4.97;;
37647;SDS011;23490;53.656;10.076;2023-11-21T06:29:22;9.82;;;3.92;;
37647;SDS011;23490;53.656;10.076;2023-11-21T06:31:47;8.00;;;4.28;;
37647;SDS011;23490;53.656;10.076;2023-11-21T06:34:13;7.90;;;3.72;;
37647;SDS011;23490;53.656;10.076;2023-11-21T06:36:38;8.13;;;4.40;;
37647;SDS011;23490;53.656;10.076;2023-11-21T06:39:04;7.22;;;4.03;;
37647;SDS011;23490;53.656;10.076;2023-11-21T06:41:33;9.25;;;4.55;;
37647;SDS011;23490;53.656;10.076;2023-11-21T06:43:58;12.38;;;5.10;;
37647;SDS011;23490;53.656;10.076;2023-11-21T06:46:24;12.73;;;4.80;;
37647;SDS011;23490;53.656;10.076;2023-11-21T06:48:49;7.72;;;3.72;;
37647;SDS011;23490;53.656;10.076;2023-11-21T06:51:15;10.45;;;4.32;;
37647;SDS011;23490;53.656;10.076;2023-11-21T06:53:41;9.65;;;4.32;;
37647;SDS011;23490;53.656;10.076;2023-11-21T06:56:16;7.38;;;4.35;;
37647;SDS011;23490;53.656;10.076;2023-11-21T06:58:44;7.88;;;3.83;;
37647;SDS011;23490;53.656;10.076;2023-11-21T07:01:11;8.10;;;4.18;;
37647;SDS011;23490;53.656;10.076;2023-11-21T07:03:37;8.63;;;4.68;;
37647;SDS011;23490;53.656;10.076;2023-11-21T07:06:02;8.38;;;3.85;;
37647;SDS011;23490;53.656;10.076;2023-11-21T07:08:28;7.85;;;4.28;;
37647;SDS011;23490;53.656;10.076;2023-11-21T07:10:54;8.90;;;4.15;;
37647;SDS011;23490;53.656;10.076;2023-11-21T07:13:19;7.38;;;4.03;;
37647;SDS011;23490;53.656;10.076;2023-11-21T07:15:45;6.82;;;3.53;;
37647;SDS011;23490;53.656;10.076;2023-11-21T07:18:10;8.55;;;3.65;;
37647;SDS011;23490;53.656;10.076;2023-11-21T07:20:36;7.85;;;3.88;;
37647;SDS011;23490;53.656;10.076;2023-11-21T07:23:02;8.27;;;3.53;;
37647;SDS011;23490;53.656;10.076;2023-11-21T07:25:28;7.60;;;3.83;;
37647;SDS011;23490;53.656;10.076;2023-11-21T07:27:53;7.25;;;3.47;;
37647;SDS011;23490;53.656;10.076;2023-11-21T07:30:20;7.78;;;3.72;;
37647;SDS011;23490;53.656;10.076;2023-11-21T07:32:47;7.35;;;3.22;;
37647;SDS011;23490;53.656;10.076;2023-11-21T07:35:13;6.57;;;3.00;;
37647;SDS011;23490;53.656;10.076;2023-11-21T07:37:38;6.95;;;3.00;;
37647;SDS011;23490;53.656;10.076;2023-11-21T07:40:04;8.20;;;3.47;;
37647;SDS011;23490;53.656;10.076;2023-11-21T07:42:29;10.13;;;2.70;;
37647;SDS011;23490;53.656;10.076;2023-11-21T07:44:55;6.40;;;3.30;;
37647;SDS011;23490;53.656;10.076;2023-11-21T07:47:20;5.95;;;3.83;;
37647;SDS011;23490;53.656;10.076;2023-11-21T07:49:45;5.80;;;2.88;;
37647;SDS011;23490;53.656;10.076;2023-11-21T07:52:12;6.65;;;3.05;;
37647;SDS011;23490;53.656;10.076;2023-11-21T07:54:38;6.60;;;3.22;;
37647;SDS011;23490;53.656;10.076;2023-11-21T07:57:03;6.82;;;3.03;;
37647;SDS011;23490;53.656;10.076;2023-11-21T07:59:29;8.30;;;3.42;;
37647;SDS011;23490;53.656;10.076;2023-11-21T08:01:54;6.50;;;2.97;;
37647;SDS011;23490;53.656;10.076;2023-11-21T08:04:20;5.60;;;2.88;;
37647;SDS011;23490;53.656;10.076;2023-11-21T08:06:45;8.80;;;3.40;;
37647;SDS011;23490;53.656;10.076;2023-11-21T08:09:11;6.38;;;2.83;;
37647;SDS011;23490;53.656;10.076;2023-11-21T08:11:37;6.07;;;2.63;;
37647;SDS011;23490;53.656;10.076;2023-11-21T08:14:03;5.60;;;2.72;;
37647;SDS011;23490;53.656;10.076;2023-11-21T08:16:30;7.03;;;3.03;;
37647;SDS011;23490;53.656;10.076;2023-11-21T08:18:55;6.20;;;3.08;;
37647;SDS011;23490;53.656;10.076;2023-11-21T08:21:20;5.75;;;2.78;;
37647;SDS011;23490;53.656;10.076;2023-11-21T08:23:46;5.35;;;2.72;;
37647;SDS011;23490;53.656;10.076;2023-11-21T08:26:12;6.90;;;2.90;;
37647;SDS011;23490;53.656;10.076;2023-11-21T08:28:40;6.15;;;2.97;;
37647;SDS011;23490;53.656;10.076;2023-11-21T08:31:06;5.45;;;2.60;;
37647;SDS011;23490;53.656;10.076;2023-11-21T08:33:31;5.93;;;2.47;;
37647;SDS011;23490;53.656;10.076;2023-11-21T08:35:57;6.55;;;2.60;;
37647;SDS011;23490;53.656;10.076;2023-11-21T08:38:22;6.97;;;2.58;;
37647;SDS011;23490;53.656;10.076;2023-11-21T08:40:48;6.10;;;2.92;;
37647;SDS011;23490;53.656;10.076;2023-11-21T08:43:13;6.45;;;2.85;;
37647;SDS011;23490;53.656;10.076;2023-11-21T08:45:39;5.88;;;2.97;;
37647;SDS011;23490;53.656;10.076;2023-11-21T08:48:05;5.95;;;2.67;;
37647;SDS011;23490;53.656;10.076;2023-11-21T08:50:30;6.97;;;3.33;;
37647;SDS011;23490;53.656;10.076;2023-11-21T08:52:56;7.13;;;3.60;;
37647;SDS011;23490;53.656;10.076;2023-11-21T08:55:21;6.22;;;3.17;;
37647;SDS011;23490;53.656;10.076;2023-11-21T08:57:47;6.45;;;3.00;;
37647;SDS011;23490;53.656;10.076;2023-11-21T09:00:12;4.80;;;2.50;;
37647;SDS011;23490;53.656;10.076;2023-11-21T09:02:42;6.13;;;2.53;;
37647;SDS011;23490;53.656;10.076;2023-11-21T09:05:12;5.53;;;2.47;;
37647;SDS011;23490;53.656;10.076;2023-11-21T09:07:38;5.35;;;2.17;;
37647;SDS011;23490;53.656;10.076;2023-11-21T09:10:08;3.60;;;1.48;;
37647;SDS011;23490;53.656;10.076;2023-11-21T09:12:37;4.72;;;1.92;;
37647;SDS011;23490;53.656;10.076;2023-11-21T09:15:03;5.15;;;1.80;;
37647;SDS011;23490;53.656;10.076;2023-11-21T09:17:33;3.97;;;2.22;;
37647;SDS011;23490;53.656;10.076;2023-11-21T09:20:02;3.35;;;1.77;;
37647;SDS011;23490;53.656;10.076;2023-11-21T09:22:30;3.83;;;1.77;;
37647;SDS011;23490;53.656;10.076;2023-11-21T09:24:56;4.63;;;1.67;;
37647;SDS011;23490;53.656;10.076;2023-11-21T09:27:22;4.03;;;1.77;;
37647;SDS011;23490;53.656;10.076;2023-11-21T09:29:48;4.13;;;1.80;;
37647;SDS011;23490;53.656;10.076;2023-11-21T09:32:14;3.72;;;1.92;;
37647;SDS011;23490;53.656;10.076;2023-11-21T09:34:43;4.22;;;1.80;;
37647;SDS011;23490;53.656;10.076;2023-11-21T09:37:09;4.05;;;1.58;;
37647;SDS011;23490;53.656;10.076;2023-11-21T09:39:34;6.20;;;2.60;;
37647;SDS011;23490;53.656;10.076;2023-11-21T09:42:12;5.47;;;1.80;;
37647;SDS011;23490;53.656;10.076;2023-11-21T09:47:14;4.00;;;2.17;;
37647;SDS011;23490;53.656;10.076;2023-11-21T09:49:41;3.30;;;1.75;;
37647;SDS011;23490;53.656;10.076;2023-11-21T09:52:12;5.30;;;2.00;;
37647;SDS011;23490;53.656;10.076;2023-11-21T09:54:44;3.83;;;1.75;;
37647;SDS011;23490;53.656;10.076;2023-11-21T09:57:10;4.45;;;1.92;;
37647;SDS011;23490;53.656;10.076;2023-11-21T09:59:36;3.85;;;1.98;;
37647;SDS011;23490;53.656;10.076;2023-11-21T10:02:03;5.43;;;2.55;;
37647;SDS011;23490;53.656;10.076;2023-11-21T10:04:28;3.15;;;1.95;;
37647;SDS011;23490;53.656;10.076;2023-11-21T10:06:54;4.82;;;2.50;;
37647;SDS011;23490;53.656;10.076;2023-11-21T10:09:19;3.63;;;1.60;;
37647;SDS011;23490;53.656;10.076;2023-11-21T10:11:46;3.80;;;1.70;;
37647;SDS011;23490;53.656;10.076;2023-11-21T10:14:12;3.97;;;1.80;;
37647;SDS011;23490;53.656;10.076;2023-11-21T10:16:39;3.53;;;1.52;;
37647;SDS011;23490;53.656;10.076;2023-11-21T10:19:05;3.15;;;1.55;;
37647;SDS011;23490;53.656;10.076;2023-11-21T10:21:33;4.28;;;2.13;;
37647;SDS011;23490;53.656;10.076;2023-11-21T10:23:59;3.63;;;1.92;;
37647;SDS011;23490;53.656;10.076;2023-11-21T10:26:25;2.65;;;1.50;;
37647;SDS011;23490;53.656;10.076;2023-11-21T10:28:55;4.30;;;1.50;;
37647;SDS011;23490;53.656;10.076;2023-11-21T10:31:24;3.78;;;1.52;;
37647;SDS011;23490;53.656;10.076;2023-11-21T10:33:51;3.35;;;1.63;;
37647;SDS011;23490;53.656;10.076;2023-11-21T10:36:24;3.53;;;1.70;;
37647;SDS011;23490;53.656;10.076;2023-11-21T10:38:53;2.88;;;1.35;;
37647;SDS011;23490;53.656;10.076;2023-11-21T10:41:19;5.00;;;1.95;;
37647;SDS011;23490;53.656;10.076;2023-11-21T10:43:45;3.63;;;1.63;;
37647;SDS011;23490;53.656;10.076;2023-11-21T10:46:11;4.60;;;1.70;;
37647;SDS011;23490;53.656;10.076;2023-11-21T10:48:36;2.80;;;1.73;;
37647;SDS011;23490;53.656;10.076;2023-11-21T10:51:06;3.10;;;1.70;;
37647;SDS011;23490;53.656;10.076;2023-11-21T10:53:42;4.72;;;1.88;;
37647;SDS011;23490;53.656;10.076;2023-11-21T10:56:08;3.03;;;1.60;;
37647;SDS011;23490;53.656;10.076;2023-11-21T10:58:36;5.85;;;1.55;;
37647;SDS011;23490;53.656;10.076;2023-11-21T11:01:02;3.85;;;1.77;;
37647;SDS011;23490;53.656;10.076;2023-11-21T11:03:32;2.78;;;1.50;;
37647;SDS011;23490;53.656;10.076;2023-11-21T11:05:59;3.50;;;1.92;;
37647;SDS011;23490;53.656;10.076;2023-11-21T11:08:25;3.13;;;1.50;;
37647;SDS011;23490;53.656;10.076;2023-11-21T11:10:53;3.45;;;1.70;;
37647;SDS011;23490;53.656;10.076;2023-11-21T11:13:18;4.00;;;1.58;;
37647;SDS011;23490;53.656;10.076;2023-11-21T11:15:47;3.08;;;1.40;;
37647;SDS011;23490;53.656;10.076;2023-11-21T11:18:13;4.22;;;1.40;;
37647;SDS011;23490;53.656;10.076;2023-11-21T11:20:39;3.28;;;1.52;;
37647;SDS011;23490;53.656;10.076;2023-11-21T11:29:50;2.13;;;1.30;;
37647;SDS011;23490;53.656;10.076;2023-11-21T11:34:41;3.55;;;1.55;;
37647;SDS011;23490;53.656;10.076;2023-11-21T11:37:12;2.67;;;1.38;;
37647;SDS011;23490;53.656;10.076;2023-11-21T11:39:39;3.50;;;1.60;;
37647;SDS011;23490;53.656;10.076;2023-11-21T11:42:13;4.07;;;1.80;;
37647;SDS011;23490;53.656;10.076;2023-11-21T11:47:24;3.75;;;1.60;;
37647;SDS011;23490;53.656;10.076;2023-11-21T11:49:56;2.65;;;1.33;;
37647;SDS011;23490;53.656;10.076;2023-11-21T11:52:42;3.08;;;1.70;;
37647;SDS011;23490;53.656;10.076;2023-11-21T11:55:13;2.53;;;1.42;;
37647;SDS011;23490;53.656;10.076;2023-11-21T11:57:39;3.75;;;1.40;;
37647;SDS011;23490;53.656;10.076;2023-11-21T12:00:13;4.18;;;1.88;;
37647;SDS011;23490;53.656;10.076;2023-11-21T12:02:52;5.03;;;1.40;;
37647;SDS011;23490;53.656;10.076;2023-11-21T12:05:20;3.42;;;1.70;;
37647;SDS011;23490;53.656;10.076;2023-11-21T12:10:13;3.88;;;2.00;;
37647;SDS011;23490;53.656;10.076;2023-11-21T12:12:47;3.42;;;1.55;;
37647;SDS011;23490;53.656;10.076;2023-11-21T12:15:35;2.28;;;1.42;;
37647;SDS011;23490;53.656;10.076;2023-11-21T12:18:02;3.00;;;1.60;;
37647;SDS011;23490;53.656;10.076;2023-11-21T12:20:28;4.05;;;1.80;;
37647;SDS011;23490;53.656;10.076;2023-11-21T12:22:59;3.33;;;1.70;;
37647;SDS011;23490;53.656;10.076;2023-11-21T12:25:28;3.13;;;1.50;;
37647;SDS011;23490;53.656;10.076;2023-11-21T12:27:57;3.45;;;1.80;;
37647;SDS011;23490;53.656;10.076;2023-11-21T12:30:23;3.08;;;1.60;;
37647;SDS011;23490;53.656;10.076;2023-11-21T12:32:53;3.38;;;1.70;;
37647;SDS011;23490;53.656;10.076;2023-11-21T12:35:21;2.85;;;1.52;;
37647;SDS011;23490;53.656;10.076;2023-11-21T12:37:49;3.63;;;1.85;;
37647;SDS011;23490;53.656;10.076;2023-11-21T12:40:15;3.75;;;1.90;;
37647;SDS011;23490;53.656;10.076;2023-11-21T12:42:43;2.28;;;1.20;;
37647;SDS011;23490;53.656;10.076;2023-11-21T12:45:24;3.97;;;1.75;;
37647;SDS011;23490;53.656;10.076;2023-11-21T12:47:53;3.70;;;1.73;;
37647;SDS011;23490;53.656;10.076;2023-11-21T12:50:20;3.15;;;1.40;;
37647;SDS011;23490;53.656;10.076;2023-11-21T12:52:48;2.70;;;1.52;;
37647;SDS011;23490;53.656;10.076;2023-11-21T12:55:15;3.13;;;1.60;;
37647;SDS011;23490;53.656;10.076;2023-11-21T12:57:42;3.28;;;1.67;;
37647;SDS011;23490;53.656;10.076;2023-11-21T13:00:09;3.20;;;1.40;;
37647;SDS011;23490;53.656;10.076;2023-11-21T13:02:49;3.80;;;1.58;;
37647;SDS011;23490;53.656;10.076;2023-11-21T13:05:23;4.00;;;1.55;;
37647;SDS011;23490;53.656;10.076;2023-11-21T13:07:52;4.57;;;1.60;;
37647;SDS011;23490;53.656;10.076;2023-11-21T13:10:19;3.33;;;1.60;;
37647;SDS011;23490;53.656;10.076;2023-11-21T13:12:51;3.13;;;1.45;;
37647;SDS011;23490;53.656;10.076;2023-11-21T13:15:17;3.40;;;1.70;;
37647;SDS011;23490;53.656;10.076;2023-11-21T13:17:45;3.30;;;1.58;;
37647;SDS011;23490;53.656;10.076;2023-11-21T13:20:11;3.50;;;1.70;;
37647;SDS011;23490;53.656;10.076;2023-11-21T13:22:46;7.32;;;1.90;;
37647;SDS011;23490;53.656;10.076;2023-11-21T13:25:12;4.53;;;1.58;;
37647;SDS011;23490;53.656;10.076;2023-11-21T13:27:39;3.83;;;1.55;;
37647;SDS011;23490;53.656;10.076;2023-11-21T13:30:05;4.53;;;2.05;;
37647;SDS011;23490;53.656;10.076;2023-11-21T13:32:34;3.55;;;1.73;;
37647;SDS011;23490;53.656;10.076;2023-11-21T13:34:59;3.25;;;1.45;;
37647;SDS011;23490;53.656;10.076;2023-11-21T13:37:25;2.97;;;1.42;;
37647;SDS011;23490;53.656;10.076;2023-11-21T13:39:53;4.13;;;1.60;;
37647;SDS011;23490;53.656;10.076;2023-11-21T13:42:19;3.78;;;1.30;;
37647;SDS011;23490;53.656;10.076;2023-11-21T13:44:48;4.25;;;1.67;;
37647;SDS011;23490;53.656;10.076;2023-11-21T13:47:16;6.38;;;1.88;;
37647;SDS011;23490;53.656;10.076;2023-11-21T13:49:42;6.15;;;1.75;;
37647;SDS011;23490;53.656;10.076;2023-11-21T13:52:07;3.78;;;1.42;;
37647;SDS011;23490;53.656;10.076;2023-11-21T13:54:33;3.42;;;1.35;;
37647;SDS011;23490;53.656;10.076;2023-11-21T13:56:58;4.18;;;1.50;;
37647;SDS011;23490;53.656;10.076;2023-11-21T13:59:25;4.53;;;1.90;;
37647;SDS011;23490;53.656;10.076;2023-11-21T14:01:53;3.15;;;2.15;;
37647;SDS011;23490;53.656;10.076;2023-11-21T14:04:20;3.92;;;1.60;;
37647;SDS011;23490;53.656;10.076;2023-11-21T14:07:00;4.20;;;1.75;;
37647;SDS011;23490;53.656;10.076;2023-11-21T14:09:36;4.30;;;1.77;;
37647;SDS011;23490;53.656;10.076;2023-11-21T14:12:08;3.90;;;1.42;;
37647;SDS011;23490;53.656;10.076;2023-11-21T14:14:37;5.30;;;1.77;;
37647;SDS011;23490;53.656;10.076;2023-11-21T14:17:04;4.10;;;1.63;;
37647;SDS011;23490;53.656;10.076;2023-11-21T14:19:32;3.67;;;1.35;;
37647;SDS011;23490;53.656;10.076;2023-11-21T14:21:58;2.92;;;1.38;;
37647;SDS011;23490;53.656;10.076;2023-11-21T14:24:24;3.33;;;1.27;;
37647;SDS011;23490;53.656;10.076;2023-11-21T14:26:50;3.30;;;1.40;;
37647;SDS011;23490;53.656;10.076;2023-11-21T14:29:16;1.80;;;0.90;;
37647;SDS011;23490;53.656;10.076;2023-11-21T14:31:48;3.00;;;1.10;;
37647;SDS011;23490;53.656;10.076;2023-11-21T14:34:15;1.85;;;1.00;;
37647;SDS011;23490;53.656;10.076;2023-11-21T14:36:40;3.10;;;1.52;;
37647;SDS011;23490;53.656;10.076;2023-11-21T14:39:06;2.17;;;0.80;;
37647;SDS011;23490;53.656;10.076;2023-11-21T14:41:34;2.42;;;0.98;;
37647;SDS011;23490;53.656;10.076;2023-11-21T14:44:02;1.25;;;0.90;;
37647;SDS011;23490;53.656;10.076;2023-11-21T14:46:29;2.60;;;1.08;;
37647;SDS011;23490;53.656;10.076;2023-11-21T14:48:55;2.30;;;0.80;;